Portada
METAR-TAF:

METAR-TAF

Aeroports :

Aurangabad, Índia

latitud: 19-51-46N, longitud: 75-23-53E, altitud: 582 m

Observació

L'informe es va fer fa 1 hora i 34 minuts, a les 18:00 UTC
Temperatura 27°C
Humitat 37%
Pressió 1014 hPa
Visibilitat: 6000 m

METAR: VAAU 181800Z 32002 6000 NSC 27/11 Q1014 NOSIG

Hora: 01:04 (19:34 UTC)

Pronòstic

L'informe es va fer fa 8 hores i 34 minuts, a les 11:00 UTC
Pronòstic vàlid del 18 a les 12 UTC al 18 a les 21 UTC
Vent 6 kt del Oest/Sud-Oest
Visibilitat: 5000 m
Escasses núvols a una alçada de 2000 ft
calitja
Evolucionant progressivament
l' 18 a les 14 UTC al 18 a les 16 UTC
Visibilitat: 4000 m
calitja
Evolucionant progressivament
l' 18 a les 19 UTC al 18 a les 21 UTC
Vent kt del Nord
Visibilitat: 3000 m
calitja

TAF: VAAU 181100Z 1812/1821 25006KT 5000 HZ FEW020 BECMG 1814/1816 4000 HZ BECMG 1819/1821 00000KT 3000 HZ

Observacions i pronòstics meteorològics de més de 4000 aeroports (METAR i TAF).

Les estacions disponibles són els punts grocs i vermells al mapa.

Posi el ratolí al punt desitjat per veure el nom de l'estació.

Feu clic per veure les observacions i els pronòstics meteorològics.

Per canviar el mapa: feu clic els botons verds amb una creu de color negre per apropar; al botó verd amb un guió per allunyar la imatge; o en les fletxes verdes per a mapes adjacents.


METAR-TAF: